sensor_id;sensor_type;location;lat;lon;timestamp;temperature;humidity
40828;DHT22;26549;50.918;5.338;2023-10-09T00:01:50;17.60;99.90
40828;DHT22;26549;50.918;5.338;2023-10-09T00:04:17;17.60;99.90
40828;DHT22;26549;50.918;5.338;2023-10-09T00:06:43;17.60;99.90
40828;DHT22;26549;50.918;5.338;2023-10-09T00:09:10;17.50;99.90
40828;DHT22;26549;50.918;5.338;2023-10-09T00:11:56;17.50;99.90
40828;DHT22;26549;50.918;5.338;2023-10-09T00:14:26;17.60;99.90
40828;DHT22;26549;50.918;5.338;2023-10-09T00:16:56;17.70;99.90
40828;DHT22;26549;50.918;5.338;2023-10-09T00:19:42;17.70;99.90
40828;DHT22;26549;50.918;5.338;2023-10-09T00:22:09;17.60;99.90
40828;DHT22;26549;50.918;5.338;2023-10-09T00:24:42;17.60;99.90
40828;DHT22;26549;50.918;5.338;2023-10-09T00:27:11;17.50;99.90
40828;DHT22;26549;50.918;5.338;2023-10-09T00:29:39;17.50;99.90
40828;DHT22;26549;50.918;5.338;2023-10-09T00:32:12;17.60;99.90
40828;DHT22;26549;50.918;5.338;2023-10-09T00:34:53;17.60;99.90
40828;DHT22;26549;50.918;5.338;2023-10-09T00:37:23;17.70;99.90
40828;DHT22;26549;50.918;5.338;2023-10-09T00:39:52;17.70;99.90
40828;DHT22;26549;50.918;5.338;2023-10-09T00:42:24;17.60;99.90
40828;DHT22;26549;50.918;5.338;2023-10-09T00:45:02;17.70;99.90
40828;DHT22;26549;50.918;5.338;2023-10-09T00:47:34;17.50;99.90
40828;DHT22;26549;50.918;5.338;2023-10-09T00:50:05;17.60;99.90
40828;DHT22;26549;50.918;5.338;2023-10-09T00:52:56;17.50;99.90
40828;DHT22;26549;50.918;5.338;2023-10-09T00:55:31;17.60;99.90
40828;DHT22;26549;50.918;5.338;2023-10-09T00:58:12;17.50;99.90
40828;DHT22;26549;50.918;5.338;2023-10-09T01:00:42;17.50;99.90
40828;DHT22;26549;50.918;5.338;2023-10-09T01:03:13;17.60;99.90
40828;DHT22;26549;50.918;5.338;2023-10-09T01:05:46;17.60;99.90
40828;DHT22;26549;50.918;5.338;2023-10-09T01:08:23;17.60;99.90
40828;DHT22;26549;50.918;5.338;2023-10-09T01:10:55;17.60;99.90
40828;DHT22;26549;50.918;5.338;2023-10-09T01:13:25;17.60;99.90
40828;DHT22;26549;50.918;5.338;2023-10-09T01:16:06;17.60;99.90
40828;DHT22;26549;50.918;5.338;2023-10-09T01:18:32;17.60;99.90
40828;DHT22;26549;50.918;5.338;2023-10-09T01:21:02;17.60;99.90
40828;DHT22;26549;50.918;5.338;2023-10-09T01:23:28;17.60;99.90
40828;DHT22;26549;50.918;5.338;2023-10-09T01:25:56;17.60;99.90
40828;DHT22;26549;50.918;5.338;2023-10-09T01:28:21;17.70;99.90
40828;DHT22;26549;50.918;5.338;2023-10-09T01:30:50;17.60;99.90
40828;DHT22;26549;50.918;5.338;2023-10-09T01:33:17;17.50;99.90
40828;DHT22;26549;50.918;5.338;2023-10-09T01:35:50;17.60;99.90
40828;DHT22;26549;50.918;5.338;2023-10-09T01:38:21;17.70;99.90
40828;DHT22;26549;50.918;5.338;2023-10-09T01:40:57;17.60;99.90
40828;DHT22;26549;50.918;5.338;2023-10-09T01:43:32;17.60;99.90
40828;DHT22;26549;50.918;5.338;2023-10-09T01:46:00;17.60;99.90
40828;DHT22;26549;50.918;5.338;2023-10-09T01:48:27;17.70;99.90
40828;DHT22;26549;50.918;5.338;2023-10-09T01:50:52;17.80;99.90
40828;DHT22;26549;50.918;5.338;2023-10-09T01:53:19;17.70;99.90
40828;DHT22;26549;50.918;5.338;2023-10-09T01:55:47;17.80;99.90
40828;DHT22;26549;50.918;5.338;2023-10-09T01:58:15;17.70;99.90
40828;DHT22;26549;50.918;5.338;2023-10-09T02:00:46;17.90;99.90
40828;DHT22;26549;50.918;5.338;2023-10-09T02:03:20;17.80;99.90
40828;DHT22;26549;50.918;5.338;2023-10-09T02:05:50;17.70;99.90
40828;DHT22;26549;50.918;5.338;2023-10-09T02:08:18;17.80;99.90
40828;DHT22;26549;50.918;5.338;2023-10-09T02:10:48;17.80;99.90
40828;DHT22;26549;50.918;5.338;2023-10-09T02:13:14;17.70;99.90
40828;DHT22;26549;50.918;5.338;2023-10-09T02:15:43;17.80;99.90
40828;DHT22;26549;50.918;5.338;2023-10-09T02:20:52;17.90;99.90
40828;DHT22;26549;50.918;5.338;2023-10-09T02:23:33;18.00;99.90
40828;DHT22;26549;50.918;5.338;2023-10-09T02:26:17;17.90;99.90
40828;DHT22;26549;50.918;5.338;2023-10-09T02:28:57;17.90;99.90
40828;DHT22;26549;50.918;5.338;2023-10-09T02:31:30;17.80;99.90
40828;DHT22;26549;50.918;5.338;2023-10-09T02:34:09;17.80;99.90
40828;DHT22;26549;50.918;5.338;2023-10-09T02:36:36;17.80;99.90
40828;DHT22;26549;50.918;5.338;2023-10-09T02:39:08;17.80;99.90
40828;DHT22;26549;50.918;5.338;2023-10-09T02:41:54;17.90;99.90
40828;DHT22;26549;50.918;5.338;2023-10-09T02:44:41;17.90;99.90
40828;DHT22;26549;50.918;5.338;2023-10-09T02:47:12;18.00;99.90
40828;DHT22;26549;50.918;5.338;2023-10-09T02:49:46;17.90;99.90
40828;DHT22;26549;50.918;5.338;2023-10-09T02:52:14;17.90;99.90
40828;DHT22;26549;50.918;5.338;2023-10-09T02:54:45;17.80;99.90
40828;DHT22;26549;50.918;5.338;2023-10-09T02:57:13;17.70;99.90
40828;DHT22;26549;50.918;5.338;2023-10-09T02:59:48;17.70;99.90
40828;DHT22;26549;50.918;5.338;2023-10-09T03:02:18;17.80;99.90
40828;DHT22;26549;50.918;5.338;2023-10-09T03:04:44;17.70;99.90
40828;DHT22;26549;50.918;5.338;2023-10-09T03:07:10;17.80;99.90
40828;DHT22;26549;50.918;5.338;2023-10-09T03:09:39;17.90;99.90
40828;DHT22;26549;50.918;5.338;2023-10-09T03:12:06;17.90;99.90
40828;DHT22;26549;50.918;5.338;2023-10-09T03:14:36;17.90;99.90
40828;DHT22;26549;50.918;5.338;2023-10-09T03:17:05;17.80;99.90
40828;DHT22;26549;50.918;5.338;2023-10-09T03:19:32;17.90;99.90
40828;DHT22;26549;50.918;5.338;2023-10-09T03:22:06;17.80;99.90
40828;DHT22;26549;50.918;5.338;2023-10-09T03:24:36;17.90;99.90
40828;DHT22;26549;50.918;5.338;2023-10-09T03:27:03;17.90;99.90
40828;DHT22;26549;50.918;5.338;2023-10-09T03:29:29;17.90;99.90
40828;DHT22;26549;50.918;5.338;2023-10-09T03:31:55;18.00;99.90
40828;DHT22;26549;50.918;5.338;2023-10-09T03:34:22;17.90;99.90
40828;DHT22;26549;50.918;5.338;2023-10-09T03:36:49;17.80;99.90
40828;DHT22;26549;50.918;5.338;2023-10-09T03:39:25;17.80;99.90
40828;DHT22;26549;50.918;5.338;2023-10-09T03:42:12;17.70;99.90
40828;DHT22;26549;50.918;5.338;2023-10-09T03:44:45;17.80;99.90
40828;DHT22;26549;50.918;5.338;2023-10-09T03:47:17;17.70;99.90
40828;DHT22;26549;50.918;5.338;2023-10-09T03:49:50;17.80;99.90
40828;DHT22;26549;50.918;5.338;2023-10-09T03:52:19;17.90;99.90
40828;DHT22;26549;50.918;5.338;2023-10-09T03:54:45;17.80;99.90
40828;DHT22;26549;50.918;5.338;2023-10-09T03:57:12;17.70;99.90
40828;DHT22;26549;50.918;5.338;2023-10-09T03:59:47;17.70;99.90
40828;DHT22;26549;50.918;5.338;2023-10-09T04:02:14;17.70;99.90
40828;DHT22;26549;50.918;5.338;2023-10-09T04:04:40;17.70;99.90
40828;DHT22;26549;50.918;5.338;2023-10-09T04:07:13;17.80;99.90
40828;DHT22;26549;50.918;5.338;2023-10-09T04:09:42;17.70;99.90
40828;DHT22;26549;50.918;5.338;2023-10-09T04:12:10;17.60;99.90
40828;DHT22;26549;50.918;5.338;2023-10-09T04:14:36;17.70;99.90
40828;DHT22;26549;50.918;5.338;2023-10-09T04:17:09;17.70;99.90
40828;DHT22;26549;50.918;5.338;2023-10-09T04:19:50;17.80;99.90
40828;DHT22;26549;50.918;5.338;2023-10-09T04:22:45;17.80;99.90
40828;DHT22;26549;50.918;5.338;2023-10-09T04:25:17;17.80;99.90
40828;DHT22;26549;50.918;5.338;2023-10-09T04:27:56;17.80;99.90
40828;DHT22;26549;50.918;5.338;2023-10-09T04:30:41;17.80;99.90
40828;DHT22;26549;50.918;5.338;2023-10-09T04:33:14;17.70;99.90
40828;DHT22;26549;50.918;5.338;2023-10-09T04:36:08;17.70;99.90
40828;DHT22;26549;50.918;5.338;2023-10-09T04:38:49;17.80;99.90
40828;DHT22;26549;50.918;5.338;2023-10-09T04:41:30;17.70;99.90
40828;DHT22;26549;50.918;5.338;2023-10-09T04:44:08;17.70;99.90
40828;DHT22;26549;50.918;5.338;2023-10-09T04:46:55;17.60;99.90
40828;DHT22;26549;50.918;5.338;2023-10-09T04:49:37;17.60;99.90
40828;DHT22;26549;50.918;5.338;2023-10-09T04:52:27;17.60;99.90
40828;DHT22;26549;50.918;5.338;2023-10-09T04:54:56;17.60;99.90
40828;DHT22;26549;50.918;5.338;2023-10-09T04:57:43;17.60;99.90
40828;DHT22;26549;50.918;5.338;2023-10-09T05:00:10;17.60;99.90
40828;DHT22;26549;50.918;5.338;2023-10-09T05:02:53;17.60;99.90
40828;DHT22;26549;50.918;5.338;2023-10-09T05:05:29;17.70;99.90
40828;DHT22;26549;50.918;5.338;2023-10-09T05:08:15;17.60;99.90
40828;DHT22;26549;50.918;5.338;2023-10-09T05:10:55;17.60;99.90
40828;DHT22;26549;50.918;5.338;2023-10-09T05:13:21;17.60;99.90
40828;DHT22;26549;50.918;5.338;2023-10-09T05:16:12;17.60;99.90
40828;DHT22;26549;50.918;5.338;2023-10-09T05:18:45;17.60;99.90
40828;DHT22;26549;50.918;5.338;2023-10-09T05:21:22;17.50;99.90
40828;DHT22;26549;50.918;5.338;2023-10-09T05:24:00;17.50;99.90
40828;DHT22;26549;50.918;5.338;2023-10-09T05:26:49;17.50;99.90
40828;DHT22;26549;50.918;5.338;2023-10-09T05:29:25;17.50;99.90
40828;DHT22;26549;50.918;5.338;2023-10-09T05:32:04;17.50;99.90
40828;DHT22;26549;50.918;5.338;2023-10-09T05:34:42;17.50;99.90
40828;DHT22;26549;50.918;5.338;2023-10-09T05:37:30;17.40;99.90
40828;DHT22;26549;50.918;5.338;2023-10-09T05:40:02;17.40;99.90
40828;DHT22;26549;50.918;5.338;2023-10-09T05:42:33;17.50;99.90
40828;DHT22;26549;50.918;5.338;2023-10-09T05:45:04;17.60;99.90
40828;DHT22;26549;50.918;5.338;2023-10-09T05:47:44;17.50;99.90
40828;DHT22;26549;50.918;5.338;2023-10-09T05:50:33;17.40;99.90
40828;DHT22;26549;50.918;5.338;2023-10-09T05:52:58;17.50;99.90
40828;DHT22;26549;50.918;5.338;2023-10-09T05:55:28;17.50;99.90
40828;DHT22;26549;50.918;5.338;2023-10-09T05:58:13;17.60;99.90
40828;DHT22;26549;50.918;5.338;2023-10-09T06:01:05;17.60;99.90
40828;DHT22;26549;50.918;5.338;2023-10-09T06:03:49;17.50;99.90
40828;DHT22;26549;50.918;5.338;2023-10-09T06:06:20;17.70;99.90
40828;DHT22;26549;50.918;5.338;2023-10-09T06:09:06;17.70;99.90
40828;DHT22;26549;50.918;5.338;2023-10-09T06:11:42;17.70;99.90
40828;DHT22;26549;50.918;5.338;2023-10-09T06:14:21;17.70;99.90
40828;DHT22;26549;50.918;5.338;2023-10-09T06:16:57;17.60;99.90
40828;DHT22;26549;50.918;5.338;2023-10-09T06:19:24;17.60;99.90
40828;DHT22;26549;50.918;5.338;2023-10-09T06:22:00;17.60;99.90
40828;DHT22;26549;50.918;5.338;2023-10-09T06:24:30;17.50;99.90
40828;DHT22;26549;50.918;5.338;2023-10-09T06:27:09;17.60;99.90
40828;DHT22;26549;50.918;5.338;2023-10-09T06:29:35;17.50;99.90
40828;DHT22;26549;50.918;5.338;2023-10-09T06:32:08;17.60;99.90
40828;DHT22;26549;50.918;5.338;2023-10-09T06:34:46;17.60;99.90
40828;DHT22;26549;50.918;5.338;2023-10-09T06:37:18;17.60;99.90
40828;DHT22;26549;50.918;5.338;2023-10-09T06:39:53;17.70;99.90
40828;DHT22;26549;50.918;5.338;2023-10-09T06:42:19;17.70;99.90
40828;DHT22;26549;50.918;5.338;2023-10-09T06:45:05;17.70;99.90
40828;DHT22;26549;50.918;5.338;2023-10-09T06:47:35;17.90;99.90
40828;DHT22;26549;50.918;5.338;2023-10-09T06:50:11;17.70;99.90
40828;DHT22;26549;50.918;5.338;2023-10-09T06:52:46;17.80;99.90
40828;DHT22;26549;50.918;5.338;2023-10-09T06:55:44;17.70;99.90
40828;DHT22;26549;50.918;5.338;2023-10-09T06:58:26;17.70;99.90
40828;DHT22;26549;50.918;5.338;2023-10-09T07:00:54;17.60;99.90
40828;DHT22;26549;50.918;5.338;2023-10-09T07:03:38;17.70;99.90
40828;DHT22;26549;50.918;5.338;2023-10-09T07:06:18;17.70;99.90
40828;DHT22;26549;50.918;5.338;2023-10-09T07:08:53;17.70;99.90
40828;DHT22;26549;50.918;5.338;2023-10-09T07:11:49;17.70;99.90
40828;DHT22;26549;50.918;5.338;2023-10-09T07:14:20;17.70;99.90
40828;DHT22;26549;50.918;5.338;2023-10-09T07:16:56;17.70;99.90
40828;DHT22;26549;50.918;5.338;2023-10-09T07:19:29;17.80;99.90
40828;DHT22;26549;50.918;5.338;2023-10-09T07:22:22;17.80;99.90
40828;DHT22;26549;50.918;5.338;2023-10-09T07:24:50;17.90;99.90
40828;DHT22;26549;50.918;5.338;2023-10-09T07:27:39;17.90;99.90
40828;DHT22;26549;50.918;5.338;2023-10-09T07:30:15;18.00;99.90
40828;DHT22;26549;50.918;5.338;2023-10-09T07:33:06;18.00;99.90
40828;DHT22;26549;50.918;5.338;2023-10-09T07:35:36;18.00;99.90
40828;DHT22;26549;50.918;5.338;2023-10-09T07:38:15;17.90;99.90
40828;DHT22;26549;50.918;5.338;2023-10-09T07:40:45;18.00;99.90
40828;DHT22;26549;50.918;5.338;2023-10-09T07:43:24;18.10;99.90
40828;DHT22;26549;50.918;5.338;2023-10-09T07:46:18;18.20;99.90
40828;DHT22;26549;50.918;5.338;2023-10-09T07:49:02;18.20;99.90
40828;DHT22;26549;50.918;5.338;2023-10-09T07:51:38;18.20;99.90
40828;DHT22;26549;50.918;5.338;2023-10-09T07:54:09;18.20;99.90
40828;DHT22;26549;50.918;5.338;2023-10-09T07:56:36;18.20;99.90
40828;DHT22;26549;50.918;5.338;2023-10-09T07:59:13;18.20;99.90
40828;DHT22;26549;50.918;5.338;2023-10-09T08:01:44;18.30;99.90
40828;DHT22;26549;50.918;5.338;2023-10-09T08:04:28;18.30;99.90
40828;DHT22;26549;50.918;5.338;2023-10-09T08:07:10;18.40;99.90
40828;DHT22;26549;50.918;5.338;2023-10-09T08:09:45;18.50;99.90
40828;DHT22;26549;50.918;5.338;2023-10-09T08:12:17;18.50;99.90
40828;DHT22;26549;50.918;5.338;2023-10-09T08:15:06;18.50;99.90
40828;DHT22;26549;50.918;5.338;2023-10-09T08:17:50;18.50;99.90
40828;DHT22;26549;50.918;5.338;2023-10-09T08:20:29;18.70;99.90
40828;DHT22;26549;50.918;5.338;2023-10-09T08:23:14;18.60;99.90
40828;DHT22;26549;50.918;5.338;2023-10-09T08:26:03;18.80;99.90
40828;DHT22;26549;50.918;5.338;2023-10-09T08:28:41;18.80;99.90
40828;DHT22;26549;50.918;5.338;2023-10-09T08:31:17;18.70;99.90
40828;DHT22;26549;50.918;5.338;2023-10-09T08:34:03;18.80;99.90
40828;DHT22;26549;50.918;5.338;2023-10-09T08:36:31;18.90;99.90
40828;DHT22;26549;50.918;5.338;2023-10-09T08:39:02;18.90;99.90
40828;DHT22;26549;50.918;5.338;2023-10-09T08:41:42;19.00;99.90
40828;DHT22;26549;50.918;5.338;2023-10-09T08:44:10;19.00;99.90
40828;DHT22;26549;50.918;5.338;2023-10-09T08:46:38;19.00;99.90
40828;DHT22;26549;50.918;5.338;2023-10-09T08:49:05;19.00;99.90
40828;DHT22;26549;50.918;5.338;2023-10-09T08:51:34;19.10;99.90
40828;DHT22;26549;50.918;5.338;2023-10-09T08:54:00;19.10;99.90
40828;DHT22;26549;50.918;5.338;2023-10-09T08:56:26;19.10;99.90
40828;DHT22;26549;50.918;5.338;2023-10-09T08:58:57;19.10;99.90
40828;DHT22;26549;50.918;5.338;2023-10-09T09:01:25;19.10;99.90
40828;DHT22;26549;50.918;5.338;2023-10-09T09:03:52;19.20;99.90
40828;DHT22;26549;50.918;5.338;2023-10-09T09:06:21;19.30;99.90
40828;DHT22;26549;50.918;5.338;2023-10-09T09:08:49;19.50;99.90
40828;DHT22;26549;50.918;5.338;2023-10-09T09:11:21;19.70;99.90
40828;DHT22;26549;50.918;5.338;2023-10-09T09:16:20;19.80;99.90
40828;DHT22;26549;50.918;5.338;2023-10-09T09:21:41;19.80;99.90
40828;DHT22;26549;50.918;5.338;2023-10-09T09:24:12;19.80;99.90
40828;DHT22;26549;50.918;5.338;2023-10-09T09:26:51;19.80;99.90
40828;DHT22;26549;50.918;5.338;2023-10-09T09:29:39;19.90;99.90
40828;DHT22;26549;50.918;5.338;2023-10-09T09:32:12;19.90;99.90
40828;DHT22;26549;50.918;5.338;2023-10-09T09:34:54;20.10;99.90
40828;DHT22;26549;50.918;5.338;2023-10-09T09:37:27;20.30;99.90
40828;DHT22;26549;50.918;5.338;2023-10-09T09:40:01;20.40;99.90
40828;DHT22;26549;50.918;5.338;2023-10-09T09:42:30;20.60;99.90
40828;DHT22;26549;50.918;5.338;2023-10-09T09:45:00;20.70;99.90
40828;DHT22;26549;50.918;5.338;2023-10-09T09:47:27;20.80;99.90
40828;DHT22;26549;50.918;5.338;2023-10-09T09:49:57;20.90;99.90
40828;DHT22;26549;50.918;5.338;2023-10-09T09:52:29;21.10;99.90
40828;DHT22;26549;50.918;5.338;2023-10-09T09:55:05;21.00;99.90
40828;DHT22;26549;50.918;5.338;2023-10-09T09:57:33;21.00;99.90
40828;DHT22;26549;50.918;5.338;2023-10-09T10:00:08;21.10;99.90
40828;DHT22;26549;50.918;5.338;2023-10-09T10:02:45;21.30;99.90
40828;DHT22;26549;50.918;5.338;2023-10-09T10:05:11;21.10;99.90
40828;DHT22;26549;50.918;5.338;2023-10-09T10:07:41;21.10;99.90
40828;DHT22;26549;50.918;5.338;2023-10-09T10:10:38;21.20;99.90
40828;DHT22;26549;50.918;5.338;2023-10-09T10:13:13;21.30;99.90
40828;DHT22;26549;50.918;5.338;2023-10-09T10:18:24;21.50;99.90
40828;DHT22;26549;50.918;5.338;2023-10-09T10:23:44;21.40;99.90
40828;DHT22;26549;50.918;5.338;2023-10-09T10:26:20;21.40;99.90
40828;DHT22;26549;50.918;5.338;2023-10-09T10:29:29;21.30;99.90
40828;DHT22;26549;50.918;5.338;2023-10-09T10:32:01;21.40;99.90
40828;DHT22;26549;50.918;5.338;2023-10-09T10:34:52;21.40;99.90
40828;DHT22;26549;50.918;5.338;2023-10-09T10:40:11;21.50;99.90
40828;DHT22;26549;50.918;5.338;2023-10-09T10:42:55;21.50;99.90
40828;DHT22;26549;50.918;5.338;2023-10-09T10:45:35;21.60;99.90
40828;DHT22;26549;50.918;5.338;2023-10-09T10:48:05;21.60;99.90
40828;DHT22;26549;50.918;5.338;2023-10-09T10:50:36;21.60;99.90
40828;DHT22;26549;50.918;5.338;2023-10-09T10:53:12;21.70;99.90
40828;DHT22;26549;50.918;5.338;2023-10-09T10:56:03;21.70;99.90
40828;DHT22;26549;50.918;5.338;2023-10-09T10:58:38;21.60;99.90
40828;DHT22;26549;50.918;5.338;2023-10-09T11:01:04;21.70;99.90
40828;DHT22;26549;50.918;5.338;2023-10-09T11:03:42;21.90;99.90
40828;DHT22;26549;50.918;5.338;2023-10-09T11:06:31;21.80;99.90
40828;DHT22;26549;50.918;5.338;2023-10-09T11:09:07;21.70;99.90
40828;DHT22;26549;50.918;5.338;2023-10-09T11:11:49;21.80;99.90
40828;DHT22;26549;50.918;5.338;2023-10-09T11:14:15;21.80;99.90
40828;DHT22;26549;50.918;5.338;2023-10-09T11:16:43;21.80;99.90
40828;DHT22;26549;50.918;5.338;2023-10-09T11:19:14;21.80;99.90
40828;DHT22;26549;50.918;5.338;2023-10-09T11:21:53;21.90;99.90
40828;DHT22;26549;50.918;5.338;2023-10-09T11:24:31;21.80;99.90
40828;DHT22;26549;50.918;5.338;2023-10-09T11:27:02;21.80;99.90
40828;DHT22;26549;50.918;5.338;2023-10-09T11:29:51;21.60;99.90
40828;DHT22;26549;50.918;5.338;2023-10-09T11:32:21;21.70;99.90
40828;DHT22;26549;50.918;5.338;2023-10-09T11:35:08;21.70;99.90
40828;DHT22;26549;50.918;5.338;2023-10-09T11:37:34;21.70;99.90
40828;DHT22;26549;50.918;5.338;2023-10-09T11:40:30;21.70;99.90
40828;DHT22;26549;50.918;5.338;2023-10-09T11:43:03;21.80;99.90
40828;DHT22;26549;50.918;5.338;2023-10-09T11:45:30;21.90;99.90
40828;DHT22;26549;50.918;5.338;2023-10-09T11:48:17;21.90;99.90
40828;DHT22;26549;50.918;5.338;2023-10-09T11:51:15;22.00;99.90
40828;DHT22;26549;50.918;5.338;2023-10-09T11:53:44;22.10;99.90
40828;DHT22;26549;50.918;5.338;2023-10-09T11:56:22;22.10;99.90
40828;DHT22;26549;50.918;5.338;2023-10-09T11:58:52;22.10;99.90
40828;DHT22;26549;50.918;5.338;2023-10-09T12:01:19;22.10;99.90
40828;DHT22;26549;50.918;5.338;2023-10-09T12:03:49;22.10;99.90
40828;DHT22;26549;50.918;5.338;2023-10-09T12:06:17;22.10;99.90
40828;DHT22;26549;50.918;5.338;2023-10-09T12:08:47;22.10;99.90
40828;DHT22;26549;50.918;5.338;2023-10-09T12:11:16;22.10;99.90
40828;DHT22;26549;50.918;5.338;2023-10-09T12:13:51;22.10;99.90
40828;DHT22;26549;50.918;5.338;2023-10-09T12:16:22;22.10;99.90
40828;DHT22;26549;50.918;5.338;2023-10-09T12:18:54;22.10;99.90
40828;DHT22;26549;50.918;5.338;2023-10-09T12:21:22;22.20;99.90
40828;DHT22;26549;50.918;5.338;2023-10-09T12:23:49;22.20;99.90
40828;DHT22;26549;50.918;5.338;2023-10-09T12:26:15;22.20;99.90
40828;DHT22;26549;50.918;5.338;2023-10-09T12:28:42;22.20;99.90
40828;DHT22;26549;50.918;5.338;2023-10-09T12:31:15;22.20;99.90
40828;DHT22;26549;50.918;5.338;2023-10-09T12:33:42;22.10;99.90
40828;DHT22;26549;50.918;5.338;2023-10-09T12:36:12;22.00;99.90
40828;DHT22;26549;50.918;5.338;2023-10-09T12:38:46;22.10;99.90
40828;DHT22;26549;50.918;5.338;2023-10-09T12:41:16;22.20;99.90
40828;DHT22;26549;50.918;5.338;2023-10-09T12:43:52;22.00;99.90
40828;DHT22;26549;50.918;5.338;2023-10-09T12:46:20;21.90;99.90
40828;DHT22;26549;50.918;5.338;2023-10-09T12:48:55;21.80;99.90
40828;DHT22;26549;50.918;5.338;2023-10-09T12:51:22;21.80;99.90
40828;DHT22;26549;50.918;5.338;2023-10-09T12:53:55;22.00;99.90
40828;DHT22;26549;50.918;5.338;2023-10-09T12:56:24;22.00;99.90
40828;DHT22;26549;50.918;5.338;2023-10-09T12:59:00;21.90;99.90
40828;DHT22;26549;50.918;5.338;2023-10-09T13:01:27;21.70;99.90
40828;DHT22;26549;50.918;5.338;2023-10-09T13:04:00;21.80;99.90
40828;DHT22;26549;50.918;5.338;2023-10-09T13:06:27;21.70;99.90
40828;DHT22;26549;50.918;5.338;2023-10-09T13:08:53;21.80;99.90
40828;DHT22;26549;50.918;5.338;2023-10-09T13:11:25;21.70;99.90
40828;DHT22;26549;50.918;5.338;2023-10-09T13:13:51;21.90;99.90
40828;DHT22;26549;50.918;5.338;2023-10-09T13:16:20;21.80;99.90
40828;DHT22;26549;50.918;5.338;2023-10-09T13:18:56;21.70;99.90
40828;DHT22;26549;50.918;5.338;2023-10-09T13:21:23;21.60;99.90
40828;DHT22;26549;50.918;5.338;2023-10-09T13:23:50;21.60;99.90
40828;DHT22;26549;50.918;5.338;2023-10-09T13:26:20;21.50;99.90
40828;DHT22;26549;50.918;5.338;2023-10-09T13:28:52;21.60;99.90
40828;DHT22;26549;50.918;5.338;2023-10-09T13:31:18;21.60;99.90
40828;DHT22;26549;50.918;5.338;2023-10-09T13:33:47;21.60;99.90
40828;DHT22;26549;50.918;5.338;2023-10-09T13:36:14;21.70;99.90
40828;DHT22;26549;50.918;5.338;2023-10-09T13:38:48;21.70;99.90
40828;DHT22;26549;50.918;5.338;2023-10-09T13:41:13;21.80;99.90
40828;DHT22;26549;50.918;5.338;2023-10-09T13:43:40;21.80;99.90
40828;DHT22;26549;50.918;5.338;2023-10-09T13:46:10;21.90;99.90
40828;DHT22;26549;50.918;5.338;2023-10-09T13:48:41;22.00;99.90
40828;DHT22;26549;50.918;5.338;2023-10-09T13:51:09;21.90;99.90
40828;DHT22;26549;50.918;5.338;2023-10-09T13:53:42;22.00;99.90
40828;DHT22;26549;50.918;5.338;2023-10-09T13:56:15;22.20;99.90
40828;DHT22;26549;50.918;5.338;2023-10-09T13:58:44;22.20;99.90
40828;DHT22;26549;50.918;5.338;2023-10-09T14:01:10;22.30;99.90
40828;DHT22;26549;50.918;5.338;2023-10-09T14:03:37;22.40;99.90
40828;DHT22;26549;50.918;5.338;2023-10-09T14:06:05;22.40;99.90
40828;DHT22;26549;50.918;5.338;2023-10-09T14:08:38;22.30;99.90
40828;DHT22;26549;50.918;5.338;2023-10-09T14:11:11;22.20;99.90
40828;DHT22;26549;50.918;5.338;2023-10-09T14:13:40;22.10;99.90
40828;DHT22;26549;50.918;5.338;2023-10-09T14:16:06;22.00;99.90
40828;DHT22;26549;50.918;5.338;2023-10-09T14:18:32;22.00;99.90
40828;DHT22;26549;50.918;5.338;2023-10-09T14:21:02;21.90;99.90
40828;DHT22;26549;50.918;5.338;2023-10-09T14:23:31;21.90;99.90
40828;DHT22;26549;50.918;5.338;2023-10-09T14:26:00;22.00;99.90
40828;DHT22;26549;50.918;5.338;2023-10-09T14:28:27;22.10;99.90
40828;DHT22;26549;50.918;5.338;2023-10-09T14:30:54;22.00;99.90
40828;DHT22;26549;50.918;5.338;2023-10-09T14:33:25;21.90;99.90
40828;DHT22;26549;50.918;5.338;2023-10-09T14:35:54;21.80;99.90
40828;DHT22;26549;50.918;5.338;2023-10-09T14:38:20;21.80;99.90
40828;DHT22;26549;50.918;5.338;2023-10-09T14:40:52;21.70;99.90
40828;DHT22;26549;50.918;5.338;2023-10-09T14:43:23;21.80;99.90
40828;DHT22;26549;50.918;5.338;2023-10-09T14:45:54;21.70;99.90
40828;DHT22;26549;50.918;5.338;2023-10-09T14:48:21;21.60;99.90
40828;DHT22;26549;50.918;5.338;2023-10-09T14:50:53;21.50;99.90
40828;DHT22;26549;50.918;5.338;2023-10-09T14:53:22;21.60;99.90
40828;DHT22;26549;50.918;5.338;2023-10-09T14:55:56;21.60;99.90
40828;DHT22;26549;50.918;5.338;2023-10-09T14:58:22;21.50;99.90
40828;DHT22;26549;50.918;5.338;2023-10-09T15:00:52;21.50;99.90
40828;DHT22;26549;50.918;5.338;2023-10-09T15:03:19;21.50;99.90
40828;DHT22;26549;50.918;5.338;2023-10-09T15:05:48;21.40;99.90
40828;DHT22;26549;50.918;5.338;2023-10-09T15:08:14;21.40;99.90
40828;DHT22;26549;50.918;5.338;2023-10-09T15:10:51;21.40;99.90
40828;DHT22;26549;50.918;5.338;2023-10-09T15:13:19;21.50;99.90
40828;DHT22;26549;50.918;5.338;2023-10-09T15:15:46;21.30;99.90
40828;DHT22;26549;50.918;5.338;2023-10-09T15:18:16;21.30;99.90
40828;DHT22;26549;50.918;5.338;2023-10-09T15:20:44;21.40;99.90
40828;DHT22;26549;50.918;5.338;2023-10-09T15:23:10;21.40;99.90
40828;DHT22;26549;50.918;5.338;2023-10-09T15:25:36;21.60;99.90
40828;DHT22;26549;50.918;5.338;2023-10-09T15:28:06;21.60;99.90
40828;DHT22;26549;50.918;5.338;2023-10-09T15:30:33;21.50;99.90
40828;DHT22;26549;50.918;5.338;2023-10-09T15:32:59;21.60;99.90
40828;DHT22;26549;50.918;5.338;2023-10-09T15:35:27;21.50;99.90
40828;DHT22;26549;50.918;5.338;2023-10-09T15:37:54;21.50;99.90
40828;DHT22;26549;50.918;5.338;2023-10-09T15:40:21;21.50;99.90
40828;DHT22;26549;50.918;5.338;2023-10-09T15:42:50;21.40;99.90
40828;DHT22;26549;50.918;5.338;2023-10-09T15:45:19;21.40;99.90
40828;DHT22;26549;50.918;5.338;2023-10-09T15:47:50;21.50;99.90
40828;DHT22;26549;50.918;5.338;2023-10-09T15:50:17;21.40;99.90
40828;DHT22;26549;50.918;5.338;2023-10-09T15:52:43;21.40;99.90
40828;DHT22;26549;50.918;5.338;2023-10-09T15:55:09;21.40;99.90
40828;DHT22;26549;50.918;5.338;2023-10-09T15:57:46;21.40;99.90
40828;DHT22;26549;50.918;5.338;2023-10-09T16:00:19;21.60;99.90
40828;DHT22;26549;50.918;5.338;2023-10-09T16:02:47;21.50;99.90
40828;DHT22;26549;50.918;5.338;2023-10-09T16:05:13;21.50;99.90
40828;DHT22;26549;50.918;5.338;2023-10-09T16:07:39;21.40;99.90
40828;DHT22;26549;50.918;5.338;2023-10-09T16:10:06;21.20;99.90
40828;DHT22;26549;50.918;5.338;2023-10-09T16:12:37;21.10;99.90
40828;DHT22;26549;50.918;5.338;2023-10-09T16:15:04;21.00;99.90
40828;DHT22;26549;50.918;5.338;2023-10-09T16:17:36;21.00;99.90
40828;DHT22;26549;50.918;5.338;2023-10-09T16:20:06;21.00;99.90
40828;DHT22;26549;50.918;5.338;2023-10-09T16:22:42;21.00;99.90
40828;DHT22;26549;50.918;5.338;2023-10-09T16:25:13;20.90;99.90